createdAt,value
2019-02-19T00:00:32.347Z,0.00
2019-02-19T00:01:32.331Z,0.00
2019-02-19T00:02:32.316Z,0.00
2019-02-19T00:03:32.285Z,0.00
2019-02-19T00:04:32.270Z,0.00
2019-02-19T00:05:32.256Z,0.00
2019-02-19T00:06:32.235Z,0.00
2019-02-19T00:07:32.216Z,0.00
2019-02-19T00:08:32.196Z,0.00
2019-02-19T00:09:32.179Z,0.00
2019-02-19T00:10:32.170Z,0.00
2019-02-19T00:11:32.142Z,0.00
2019-02-19T00:12:32.124Z,0.00
2019-02-19T00:13:32.104Z,0.00
2019-02-19T00:14:32.084Z,0.00
2019-02-19T00:15:32.066Z,0.00
2019-02-19T00:16:32.049Z,0.00
2019-02-19T00:17:32.030Z,0.00
2019-02-19T00:18:32.017Z,0.00
2019-02-19T00:19:31.994Z,0.00
2019-02-19T00:20:31.973Z,0.00
2019-02-19T00:21:31.956Z,0.00
2019-02-19T00:22:31.939Z,0.00
2019-02-19T00:23:31.919Z,0.00
2019-02-19T00:24:31.912Z,0.00
2019-02-19T00:25:31.887Z,0.00
2019-02-19T00:26:31.868Z,0.00
2019-02-19T00:27:31.850Z,0.00
2019-02-19T00:28:31.827Z,0.00
2019-02-19T00:29:31.820Z,0.00
2019-02-19T00:30:31.791Z,0.00
2019-02-19T00:31:31.773Z,0.00
2019-02-19T00:32:31.758Z,0.00
2019-02-19T00:33:31.738Z,0.00
2019-02-19T00:34:31.716Z,0.00
2019-02-19T00:35:31.739Z,0.00
2019-02-19T00:36:31.678Z,0.00
2019-02-19T00:37:31.658Z,0.00
2019-02-19T00:38:31.640Z,0.00
2019-02-19T00:39:31.623Z,0.00
2019-02-19T00:40:31.607Z,0.00
2019-02-19T00:41:31.588Z,0.00
2019-02-19T00:42:31.569Z,0.00
2019-02-19T00:43:31.549Z,0.00
2019-02-19T00:44:31.531Z,0.00
2019-02-19T00:45:31.513Z,0.00
2019-02-19T00:46:31.495Z,0.00
2019-02-19T00:47:31.475Z,0.00
2019-02-19T00:48:31.468Z,0.00
2019-02-19T00:49:31.446Z,0.00
2019-02-19T00:50:31.420Z,0.00
2019-02-19T00:51:31.402Z,0.00
2019-02-19T00:52:31.383Z,0.00
2019-02-19T00:53:31.366Z,0.00
2019-02-19T00:54:31.349Z,0.00
2019-02-19T00:55:31.329Z,0.00
2019-02-19T00:56:31.309Z,0.00
2019-02-19T00:57:31.292Z,0.00
2019-02-19T00:58:31.297Z,0.00
2019-02-19T00:59:31.251Z,0.00
2019-02-19T01:00:31.235Z,0.00
2019-02-19T01:01:31.217Z,0.00
2019-02-19T01:02:31.210Z,0.00
2019-02-19T01:03:31.176Z,0.00
2019-02-19T01:04:31.159Z,0.00
2019-02-19T01:05:31.139Z,0.00
2019-02-19T01:06:31.125Z,0.00
2019-02-19T01:07:31.102Z,0.00
2019-02-19T01:08:31.088Z,0.00
2019-02-19T01:09:31.065Z,0.00
2019-02-19T01:10:31.048Z,0.00
2019-02-19T01:11:31.032Z,0.00
2019-02-19T01:12:31.013Z,0.00
2019-02-19T01:13:30.993Z,0.00
2019-02-19T01:14:30.974Z,0.00
2019-02-19T01:15:30.955Z,0.00
2019-02-19T01:16:30.935Z,0.00
2019-02-19T01:17:30.926Z,0.00
2019-02-19T01:18:30.901Z,0.00
2019-02-19T01:19:30.886Z,0.00
2019-02-19T01:20:30.862Z,0.00
2019-02-19T01:21:30.845Z,0.00
2019-02-19T01:22:30.823Z,0.00
2019-02-19T01:23:30.807Z,0.00
2019-02-19T01:24:30.784Z,0.00
2019-02-19T01:25:30.768Z,0.00
2019-02-19T01:26:30.753Z,0.00
2019-02-19T01:27:30.735Z,0.00
2019-02-19T01:28:30.713Z,0.00
2019-02-19T01:29:30.698Z,0.00
2019-02-19T01:30:30.678Z,0.00
2019-02-19T01:31:30.656Z,0.00
2019-02-19T01:32:30.637Z,0.00
2019-02-19T01:33:30.620Z,0.00
2019-02-19T01:34:30.603Z,0.00
2019-02-19T01:35:30.582Z,0.00
2019-02-19T01:36:30.562Z,0.00
2019-02-19T01:37:30.546Z,0.00
2019-02-19T01:38:30.528Z,0.00
2019-02-19T01:39:30.509Z,0.00
2019-02-19T01:40:30.488Z,0.00
2019-02-19T01:41:30.469Z,0.00
2019-02-19T01:42:30.450Z,0.00
2019-02-19T01:43:30.441Z,0.00
2019-02-19T01:44:30.417Z,0.00
2019-02-19T01:45:34.169Z,0.00
2019-02-19T01:46:30.377Z,0.00
2019-02-19T01:47:30.354Z,0.00
2019-02-19T01:48:30.336Z,0.00
2019-02-19T01:49:30.330Z,0.00
2019-02-19T01:50:30.304Z,0.00
2019-02-19T01:51:30.283Z,0.00
2019-02-19T01:52:30.260Z,0.00
2019-02-19T01:53:30.243Z,0.00
2019-02-19T01:54:30.221Z,0.00
2019-02-19T01:55:30.209Z,0.00
2019-02-19T01:56:30.184Z,0.00
2019-02-19T01:57:30.168Z,0.00
2019-02-19T01:58:30.152Z,0.00
2019-02-19T01:59:30.127Z,0.00
2019-02-19T02:00:30.111Z,0.00
2019-02-19T02:01:30.096Z,0.00
2019-02-19T02:02:30.081Z,0.00
2019-02-19T02:03:30.055Z,0.00
2019-02-19T02:04:30.036Z,0.00
2019-02-19T02:05:30.013Z,0.00
2019-02-19T02:06:29.999Z,0.00
2019-02-19T02:07:29.984Z,0.00
2019-02-19T02:08:29.956Z,0.00
2019-02-19T02:09:29.938Z,0.00
2019-02-19T02:10:29.921Z,0.00
2019-02-19T02:11:29.905Z,0.00
2019-02-19T02:12:29.879Z,0.00
2019-02-19T02:13:29.864Z,0.00
2019-02-19T02:14:29.844Z,0.00
2019-02-19T02:15:29.824Z,0.00
2019-02-19T02:16:29.805Z,0.00
2019-02-19T02:17:29.787Z,0.00
2019-02-19T02:18:29.767Z,0.00
2019-02-19T02:19:29.750Z,0.00
2019-02-19T02:20:29.728Z,0.00
2019-02-19T02:21:29.710Z,0.00
2019-02-19T02:22:29.693Z,0.00
2019-02-19T02:23:29.712Z,0.00
2019-02-19T02:24:29.658Z,0.00
2019-02-19T02:25:29.636Z,0.00
2019-02-19T02:26:29.617Z,0.00
2019-02-19T02:27:29.604Z,0.00
2019-02-19T02:28:29.580Z,0.00
2019-02-19T02:29:29.560Z,0.00
2019-02-19T02:30:29.542Z,0.00
2019-02-19T02:31:29.521Z,0.00
2019-02-19T02:32:29.514Z,0.00
2019-02-19T02:33:29.483Z,0.00
2019-02-19T02:34:29.469Z,0.00
2019-02-19T02:35:29.444Z,0.00
2019-02-19T02:36:29.425Z,0.00
2019-02-19T02:37:29.410Z,0.00
2019-02-19T02:38:29.392Z,0.00
2019-02-19T02:39:29.380Z,0.00
2019-02-19T02:40:29.353Z,0.00
2019-02-19T02:41:29.337Z,0.00
2019-02-19T02:42:29.316Z,0.00
2019-02-19T02:43:29.295Z,0.00
2019-02-19T02:44:29.274Z,0.00
2019-02-19T02:45:29.274Z,0.00
2019-02-19T02:46:29.237Z,0.00
2019-02-19T02:47:29.218Z,0.00
2019-02-19T02:48:29.203Z,0.00
2019-02-19T02:49:29.182Z,0.00
2019-02-19T02:50:29.163Z,0.00
2019-02-19T02:51:29.146Z,0.00
2019-02-19T02:52:29.126Z,0.00
2019-02-19T02:53:29.114Z,0.00
2019-02-19T02:54:29.096Z,0.00
2019-02-19T02:55:29.068Z,0.00
2019-02-19T02:56:29.048Z,0.00
2019-02-19T02:57:29.028Z,0.00
2019-02-19T02:58:29.017Z,0.00
2019-02-19T02:59:28.992Z,0.00
2019-02-19T03:00:28.973Z,0.00
2019-02-19T03:01:28.954Z,0.00
2019-02-19T03:02:28.957Z,0.00
2019-02-19T03:03:28.915Z,0.00
2019-02-19T03:04:28.899Z,0.00
2019-02-19T03:05:28.881Z,0.00
2019-02-19T03:06:28.860Z,0.00
2019-02-19T03:07:28.843Z,0.00
2019-02-19T03:08:28.833Z,0.00
2019-02-19T03:09:28.803Z,0.00
2019-02-19T03:10:28.783Z,0.00
2019-02-19T03:11:28.767Z,0.00
2019-02-19T03:12:28.743Z,0.00
2019-02-19T03:13:28.728Z,0.00
2019-02-19T03:14:28.706Z,0.00
2019-02-19T03:15:28.689Z,0.00
2019-02-19T03:16:28.714Z,0.00
2019-02-19T03:17:28.656Z,0.00
2019-02-19T03:18:28.635Z,0.00
2019-02-19T03:19:28.613Z,0.00
2019-02-19T03:20:28.594Z,0.00
2019-02-19T03:21:28.577Z,0.00
2019-02-19T03:22:28.565Z,0.00
2019-02-19T03:23:28.544Z,0.00
2019-02-19T03:24:28.526Z,0.00
2019-02-19T03:25:28.499Z,0.00
2019-02-19T03:26:28.482Z,0.00
2019-02-19T03:27:28.463Z,0.00
2019-02-19T03:28:28.446Z,0.00
2019-02-19T03:29:28.424Z,0.00
2019-02-19T03:30:28.405Z,0.00
2019-02-19T03:31:28.387Z,0.00
2019-02-19T03:32:28.397Z,0.00
2019-02-19T03:33:28.352Z,0.00
2019-02-19T03:34:28.328Z,0.00
2019-02-19T03:35:28.309Z,0.00
2019-02-19T03:36:28.292Z,0.00
2019-02-19T03:37:28.277Z,0.00
2019-02-19T03:38:28.264Z,0.00
2019-02-19T03:39:28.235Z,0.00
2019-02-19T03:40:28.223Z,0.00
2019-02-19T03:41:28.197Z,0.00
2019-02-19T03:42:28.177Z,0.00
2019-02-19T03:43:28.158Z,0.00
2019-02-19T03:44:28.140Z,0.00
2019-02-19T03:45:28.125Z,0.00
2019-02-19T03:46:28.102Z,0.00
2019-02-19T03:47:28.084Z,0.00
2019-02-19T03:48:28.072Z,0.00
2019-02-19T03:49:28.046Z,0.00
2019-02-19T03:50:28.027Z,0.00
2019-02-19T03:51:28.010Z,0.00
2019-02-19T03:52:27.990Z,0.00
2019-02-19T03:53:27.969Z,0.00
2019-02-19T03:54:27.956Z,0.00
2019-02-19T03:55:27.940Z,0.00
2019-02-19T03:56:27.913Z,0.00
2019-02-19T03:57:27.903Z,0.00
2019-02-19T03:58:27.878Z,0.00
2019-02-19T03:59:27.857Z,0.00
2019-02-19T04:00:27.838Z,0.00
2019-02-19T04:01:27.829Z,0.00
2019-02-19T04:02:27.806Z,0.00
2019-02-19T04:03:27.780Z,0.00
2019-02-19T04:04:27.761Z,0.00
2019-02-19T04:05:27.743Z,0.00
2019-02-19T04:06:27.730Z,0.00
2019-02-19T04:07:27.708Z,0.00
2019-02-19T04:08:27.694Z,0.00
2019-02-19T04:09:27.668Z,0.00
2019-02-19T04:10:27.649Z,0.00
2019-02-19T04:11:27.631Z,0.00
2019-02-19T04:12:27.612Z,0.00
2019-02-19T04:13:27.590Z,0.00
2019-02-19T04:14:27.577Z,0.00
2019-02-19T04:15:27.555Z,0.00
2019-02-19T04:16:27.537Z,0.00
2019-02-19T04:17:27.517Z,0.00
2019-02-19T04:18:27.506Z,0.00
2019-02-19T04:19:27.483Z,0.00
2019-02-19T04:20:27.456Z,0.00
2019-02-19T04:21:27.439Z,0.00
2019-02-19T04:22:27.421Z,0.00
2019-02-19T04:23:27.398Z,0.00
2019-02-19T04:24:27.392Z,0.00
2019-02-19T04:25:27.363Z,0.00
2019-02-19T04:26:27.342Z,0.00
2019-02-19T04:27:27.327Z,0.00
2019-02-19T04:28:27.306Z,0.00
2019-02-19T04:29:27.288Z,0.00
2019-02-19T04:30:27.271Z,0.00
2019-02-19T04:31:27.247Z,0.00
2019-02-19T04:32:27.233Z,0.00
2019-02-19T04:33:27.212Z,0.00
2019-02-19T04:34:27.193Z,0.00
2019-02-19T04:35:27.176Z,0.00
2019-02-19T04:36:27.161Z,0.00
2019-02-19T04:37:27.133Z,0.00
2019-02-19T04:38:27.117Z,0.00
2019-02-19T04:39:27.097Z,0.00
2019-02-19T04:40:27.078Z,0.00
2019-02-19T04:41:27.058Z,0.00
2019-02-19T04:42:27.039Z,0.00
2019-02-19T04:43:27.023Z,0.00
2019-02-19T04:44:27.011Z,0.00
2019-02-19T04:45:26.985Z,0.00
2019-02-19T04:46:31.439Z,0.00
2019-02-19T04:47:26.945Z,0.00
2019-02-19T04:48:26.925Z,0.00
2019-02-19T04:49:26.907Z,0.00
2019-02-19T04:50:26.886Z,0.00
2019-02-19T04:51:26.870Z,0.00
2019-02-19T04:52:26.852Z,0.00
2019-02-19T04:53:26.833Z,0.00
2019-02-19T04:54:26.818Z,0.00
2019-02-19T04:55:26.806Z,0.00
2019-02-19T04:56:26.772Z,0.00
2019-02-19T04:57:26.757Z,0.00
2019-02-19T04:58:26.736Z,0.00
2019-02-19T04:59:26.720Z,0.00
2019-02-19T05:00:26.705Z,0.00
2019-02-19T05:01:26.678Z,0.00
2019-02-19T05:02:26.659Z,0.00
2019-02-19T05:03:26.651Z,0.00
2019-02-19T05:04:26.618Z,0.00
2019-02-19T05:05:26.600Z,0.00
2019-02-19T05:06:26.581Z,0.00
2019-02-19T05:07:26.564Z,0.00
2019-02-19T05:08:26.550Z,0.00
2019-02-19T05:09:26.526Z,0.00
2019-02-19T05:10:26.503Z,0.00
2019-02-19T05:11:26.484Z,0.00
2019-02-19T05:12:26.462Z,0.00
2019-02-19T05:13:26.451Z,0.00
2019-02-19T05:14:26.426Z,0.00
2019-02-19T05:15:26.409Z,0.00
2019-02-19T05:16:26.386Z,0.00
2019-02-19T05:17:26.366Z,0.00
2019-02-19T05:18:26.352Z,0.00
2019-02-19T05:19:26.328Z,0.00
2019-02-19T05:20:26.309Z,0.00
2019-02-19T05:21:26.289Z,0.00
2019-02-19T05:22:26.271Z,0.00
2019-02-19T05:23:26.250Z,0.00
2019-02-19T05:24:26.231Z,0.00
2019-02-19T05:25:26.214Z,0.00
2019-02-19T05:26:26.196Z,0.00
2019-02-19T05:27:26.175Z,0.00
2019-02-19T05:28:26.154Z,0.00
2019-02-19T05:29:26.137Z,0.00
2019-02-19T05:30:26.120Z,0.00
2019-02-19T05:31:26.097Z,0.00
2019-02-19T05:32:26.078Z,0.00
2019-02-19T05:33:26.066Z,0.00
2019-02-19T05:34:26.039Z,0.00
2019-02-19T05:35:26.017Z,0.00
2019-02-19T05:36:25.999Z,0.00
2019-02-19T05:37:25.978Z,0.00
2019-02-19T05:38:25.961Z,0.00
2019-02-19T05:39:25.941Z,0.00
2019-02-19T05:40:25.922Z,0.00
2019-02-19T05:41:25.907Z,0.00
2019-02-19T05:42:25.883Z,0.00
2019-02-19T05:43:25.869Z,0.00
2019-02-19T05:44:25.844Z,0.00
2019-02-19T05:45:25.830Z,0.00
2019-02-19T05:46:25.805Z,0.00
2019-02-19T05:47:25.789Z,0.00
2019-02-19T05:48:25.771Z,0.00
2019-02-19T05:49:25.747Z,0.00
2019-02-19T05:50:25.728Z,0.00
2019-02-19T05:51:25.717Z,0.00
2019-02-19T05:52:25.687Z,0.00
2019-02-19T05:53:25.670Z,0.00
2019-02-19T05:54:25.658Z,0.00
2019-02-19T05:55:25.638Z,0.00
2019-02-19T05:56:25.611Z,0.00
2019-02-19T05:57:25.592Z,0.00
2019-02-19T05:58:25.575Z,0.00
2019-02-19T05:59:25.574Z,0.00
2019-02-19T06:00:25.542Z,0.00
2019-02-19T06:01:25.520Z,0.00
2019-02-19T06:02:25.507Z,0.00
2019-02-19T06:03:25.474Z,0.00
2019-02-19T06:04:25.461Z,0.00
2019-02-19T06:05:25.438Z,0.00
2019-02-19T06:06:25.425Z,0.00
2019-02-19T06:07:25.399Z,0.00
2019-02-19T06:08:25.379Z,0.00
2019-02-19T06:09:25.358Z,0.00
2019-02-19T06:10:25.343Z,0.00
2019-02-19T06:11:25.318Z,0.00
2019-02-19T06:12:25.304Z,0.00
2019-02-19T06:13:25.281Z,0.00
2019-02-19T06:14:25.260Z,0.00
2019-02-19T06:15:25.245Z,0.00
2019-02-19T06:16:25.231Z,0.00
2019-02-19T06:17:25.205Z,4.00
2019-02-19T06:18:25.182Z,4.00
2019-02-19T06:19:25.163Z,4.00
2019-02-19T06:20:25.145Z,0.00
2019-02-19T06:21:25.129Z,4.00
2019-02-19T06:22:25.110Z,4.00
2019-02-19T06:23:25.085Z,4.00
2019-02-19T06:24:25.066Z,4.00
2019-02-19T06:25:25.063Z,4.00
2019-02-19T06:26:25.028Z,8.00
2019-02-19T06:27:25.018Z,8.00
2019-02-19T06:28:24.984Z,8.00
2019-02-19T06:29:24.968Z,12.00
2019-02-19T06:30:24.944Z,12.00
2019-02-19T06:31:24.933Z,12.00
2019-02-19T06:32:24.905Z,12.00
2019-02-19T06:33:24.891Z,12.00
2019-02-19T06:34:24.871Z,12.00
2019-02-19T06:35:24.849Z,12.00
2019-02-19T06:36:24.832Z,12.00
2019-02-19T06:37:24.813Z,16.00
2019-02-19T06:38:24.792Z,12.00
2019-02-19T06:39:24.768Z,16.00
2019-02-19T06:40:24.748Z,16.00
2019-02-19T06:41:24.727Z,16.00
2019-02-19T06:42:24.711Z,16.00
2019-02-19T06:43:24.688Z,16.00
2019-02-19T06:44:24.670Z,20.00
2019-02-19T06:45:24.650Z,28.00
2019-02-19T06:46:24.629Z,28.00
2019-02-19T06:47:24.608Z,32.00
2019-02-19T06:48:24.589Z,32.00
2019-02-19T06:49:24.575Z,44.00
2019-02-19T06:50:24.560Z,44.00
2019-02-19T06:51:24.531Z,44.00
2019-02-19T06:52:24.516Z,52.00
2019-02-19T06:53:24.500Z,52.00
2019-02-19T06:54:24.478Z,56.00
2019-02-19T06:55:24.455Z,64.00
2019-02-19T06:56:24.435Z,80.00
2019-02-19T06:57:24.414Z,88.00
2019-02-19T06:58:24.404Z,92.00
2019-02-19T06:59:24.388Z,100.00
2019-02-19T07:00:24.362Z,120.00
2019-02-19T07:01:24.337Z,140.00
2019-02-19T07:02:24.319Z,140.00
2019-02-19T07:03:24.296Z,156.00
2019-02-19T07:04:24.277Z,172.00
2019-02-19T07:05:24.257Z,176.00
2019-02-19T07:06:24.248Z,184.00
2019-02-19T07:07:24.228Z,180.00
2019-02-19T07:08:24.198Z,200.00
2019-02-19T07:09:24.182Z,204.00
2019-02-19T07:10:24.161Z,224.00
2019-02-19T07:11:24.142Z,236.00
2019-02-19T07:12:24.122Z,248.00
2019-02-19T07:13:24.102Z,264.00
2019-02-19T07:14:24.086Z,300.00
2019-02-19T07:15:24.063Z,352.00
2019-02-19T07:16:24.045Z,336.00
2019-02-19T07:17:24.035Z,348.00
2019-02-19T07:18:23.999Z,364.00
2019-02-19T07:19:23.982Z,324.00
2019-02-19T07:20:23.968Z,324.00
2019-02-19T07:21:23.947Z,312.00
2019-02-19T07:22:23.922Z,280.00
2019-02-19T07:23:23.902Z,312.00
2019-02-19T07:24:23.883Z,300.00
2019-02-19T07:25:23.864Z,300.00
2019-02-19T07:26:23.851Z,308.00
2019-02-19T07:27:23.829Z,292.00
2019-02-19T07:28:23.805Z,296.00
2019-02-19T07:29:23.788Z,276.00
2019-02-19T07:30:23.769Z,288.00
2019-02-19T07:31:23.746Z,344.00
2019-02-19T07:32:23.729Z,328.00
2019-02-19T07:33:23.711Z,328.00
2019-02-19T07:34:23.701Z,332.00
2019-02-19T07:35:23.669Z,356.00
2019-02-19T07:36:23.649Z,412.00
2019-02-19T07:37:23.643Z,444.00
2019-02-19T07:38:23.609Z,444.00
2019-02-19T07:39:23.587Z,428.00
2019-02-19T07:40:23.569Z,400.00
2019-02-19T07:41:23.551Z,444.00
2019-02-19T07:42:23.534Z,412.00
2019-02-19T07:43:23.517Z,424.00
2019-02-19T07:44:23.503Z,396.00
2019-02-19T07:45:23.479Z,368.00
2019-02-19T07:46:23.464Z,388.00
2019-02-19T07:47:24.848Z,380.00
2019-02-19T07:48:23.416Z,396.00
2019-02-19T07:49:23.395Z,412.00
2019-02-19T07:50:23.379Z,432.00
2019-02-19T07:51:23.355Z,420.00
2019-02-19T07:52:23.354Z,464.00
2019-02-19T07:53:23.348Z,464.00
2019-02-19T07:54:23.299Z,516.00
2019-02-19T07:55:23.277Z,480.00
2019-02-19T07:56:23.255Z,492.00
2019-02-19T07:57:23.236Z,524.00
2019-02-19T07:58:23.217Z,508.00
2019-02-19T07:59:23.275Z,448.00
2019-02-19T08:00:23.181Z,480.00
2019-02-19T08:01:23.159Z,544.00
2019-02-19T08:02:23.157Z,576.00
2019-02-19T08:03:23.123Z,440.00
2019-02-19T08:04:23.099Z,364.00
2019-02-19T08:05:23.083Z,340.00
2019-02-19T08:06:23.061Z,288.00
2019-02-19T08:07:23.042Z,268.00
2019-02-19T08:08:23.021Z,256.00
2019-02-19T08:09:23.012Z,220.00
2019-02-19T08:10:23.016Z,232.00
2019-02-19T08:11:22.962Z,236.00
2019-02-19T08:12:22.943Z,272.00
2019-02-19T08:13:22.928Z,272.00
2019-02-19T08:14:22.906Z,304.00
2019-02-19T08:15:22.892Z,280.00
2019-02-19T08:16:22.873Z,336.00
2019-02-19T08:17:22.857Z,344.00
2019-02-19T08:18:22.834Z,468.00
2019-02-19T08:19:22.803Z,420.00
2019-02-19T08:20:22.790Z,420.00
2019-02-19T08:21:22.770Z,512.00
2019-02-19T08:22:22.753Z,504.00
2019-02-19T08:23:22.726Z,492.00
2019-02-19T08:24:22.709Z,504.00
2019-02-19T08:25:22.694Z,536.00
2019-02-19T08:26:22.671Z,500.00
2019-02-19T08:27:22.646Z,760.00
2019-02-19T08:28:22.641Z,596.00
2019-02-19T08:29:22.609Z,720.00
2019-02-19T08:30:22.597Z,812.00
2019-02-19T08:31:22.602Z,1068.00
2019-02-19T08:32:22.551Z,1208.00
2019-02-19T08:33:22.531Z,1444.00
2019-02-19T08:34:22.511Z,1992.00
2019-02-19T08:35:22.537Z,2328.00
2019-02-19T08:36:22.470Z,1504.00
2019-02-19T08:37:22.455Z,1640.00
2019-02-19T08:38:22.440Z,1548.00
2019-02-19T08:39:22.415Z,1544.00
2019-02-19T08:40:22.391Z,1492.00
2019-02-19T08:41:22.375Z,1528.00
2019-02-19T08:42:22.353Z,1796.00
2019-02-19T08:43:22.333Z,3052.00
2019-02-19T08:44:22.316Z,2336.00
2019-02-19T08:45:22.295Z,3236.00
2019-02-19T08:46:22.287Z,2872.00
2019-02-19T08:47:22.257Z,2824.00
2019-02-19T08:48:22.236Z,3224.00
2019-02-19T08:49:22.215Z,2240.00
2019-02-19T08:50:22.208Z,2140.00
2019-02-19T08:51:22.227Z,2060.00
2019-02-19T08:52:22.174Z,2904.00
2019-02-19T08:53:22.138Z,1980.00
2019-02-19T08:54:22.136Z,1732.00
2019-02-19T08:55:22.104Z,2036.00
2019-02-19T08:56:22.089Z,2064.00
2019-02-19T08:57:22.061Z,1692.00
2019-02-19T08:58:22.044Z,1952.00
2019-02-19T08:59:22.023Z,4528.00
2019-02-19T09:00:22.014Z,2784.00
2019-02-19T09:01:21.990Z,4984.00
2019-02-19T09:02:21.970Z,3968.00
2019-02-19T09:03:21.949Z,4476.00
2019-02-19T09:04:21.962Z,4228.00
2019-02-19T09:05:21.907Z,5272.00
2019-02-19T09:06:21.891Z,7048.00
2019-02-19T09:07:21.871Z,29088.00
2019-02-19T09:08:21.858Z,20416.00
2019-02-19T09:09:21.839Z,6968.00
2019-02-19T09:10:21.816Z,4736.00
2019-02-19T09:11:21.802Z,5128.00
2019-02-19T09:12:21.785Z,5700.00
2019-02-19T09:13:21.768Z,7708.00
2019-02-19T09:14:21.755Z,4904.00
2019-02-19T09:15:21.724Z,5168.00
2019-02-19T09:16:21.726Z,3848.00
2019-02-19T09:17:21.693Z,6252.00
2019-02-19T09:18:21.682Z,27904.00
2019-02-19T09:19:21.657Z,4468.00
2019-02-19T09:20:21.647Z,3484.00
2019-02-19T09:21:21.623Z,2400.00
2019-02-19T09:22:21.602Z,3092.00
2019-02-19T09:23:21.583Z,3300.00
2019-02-19T09:24:21.567Z,42720.00
2019-02-19T09:25:21.550Z,35424.00
2019-02-19T09:26:21.537Z,5468.00
2019-02-19T09:27:21.515Z,3676.00
2019-02-19T09:28:21.708Z,5628.00
2019-02-19T09:29:21.481Z,6660.00
2019-02-19T09:30:21.466Z,32416.00
2019-02-19T09:31:21.457Z,38944.00
2019-02-19T09:32:21.434Z,32288.00
2019-02-19T09:33:21.413Z,19264.00
2019-02-19T09:34:21.400Z,8352.00
2019-02-19T09:35:21.386Z,7620.00
2019-02-19T09:36:21.368Z,5308.00
2019-02-19T09:37:21.355Z,5144.00
2019-02-19T09:38:21.336Z,5396.00
2019-02-19T09:39:21.317Z,5460.00
2019-02-19T09:40:21.305Z,12476.00
2019-02-19T09:41:21.285Z,4896.00
2019-02-19T09:42:21.269Z,5984.00
2019-02-19T09:43:21.252Z,7024.00
2019-02-19T09:44:21.236Z,9768.00
2019-02-19T09:45:21.218Z,8500.00
2019-02-19T09:46:21.208Z,8332.00
2019-02-19T09:47:21.185Z,11688.00
2019-02-19T09:48:21.171Z,13536.00
2019-02-19T09:49:21.155Z,5992.00
2019-02-19T09:50:21.143Z,6032.00
2019-02-19T09:51:21.120Z,8536.00
2019-02-19T09:52:21.105Z,5980.00
2019-02-19T09:53:21.089Z,4372.00
2019-02-19T09:54:21.073Z,3596.00
2019-02-19T09:55:21.054Z,4912.00
2019-02-19T09:56:21.039Z,4448.00
2019-02-19T09:57:21.030Z,11648.00
2019-02-19T09:58:21.017Z,4588.00
2019-02-19T09:59:20.994Z,4908.00
2019-02-19T10:00:20.974Z,4400.00
2019-02-19T10:01:20.962Z,3624.00
2019-02-19T10:02:20.945Z,4340.00
2019-02-19T10:03:20.924Z,3368.00
2019-02-19T10:04:20.910Z,2864.00
2019-02-19T10:05:20.901Z,7516.00
2019-02-19T10:06:20.884Z,5332.00
2019-02-19T10:07:20.859Z,6620.00
2019-02-19T10:08:20.840Z,5616.00
2019-02-19T10:09:20.829Z,13656.00
2019-02-19T10:10:20.821Z,6652.00
2019-02-19T10:11:20.793Z,4924.00
2019-02-19T10:12:20.774Z,4672.00
2019-02-19T10:13:20.762Z,4228.00
2019-02-19T10:14:20.742Z,7840.00
2019-02-19T10:15:20.743Z,7968.00
2019-02-19T10:16:20.712Z,5692.00
2019-02-19T10:17:20.696Z,5044.00
2019-02-19T10:18:20.685Z,5768.00
2019-02-19T10:19:20.661Z,7208.00
2019-02-19T10:20:20.655Z,6620.00
2019-02-19T10:21:20.627Z,5728.00
2019-02-19T10:22:20.612Z,5148.00
2019-02-19T10:23:20.611Z,5352.00
2019-02-19T10:24:20.580Z,6280.00
2019-02-19T10:25:20.570Z,7100.00
2019-02-19T10:26:20.548Z,8644.00
2019-02-19T10:27:20.529Z,4984.00
2019-02-19T10:28:20.512Z,4200.00
2019-02-19T10:29:20.501Z,4064.00
2019-02-19T10:30:20.504Z,4576.00
2019-02-19T10:31:20.461Z,4752.00
2019-02-19T10:32:20.444Z,4860.00
2019-02-19T10:33:20.432Z,5812.00
2019-02-19T10:34:20.409Z,6788.00
2019-02-19T10:35:20.395Z,10100.00
2019-02-19T10:36:20.375Z,6212.00
2019-02-19T10:37:20.356Z,5944.00
2019-02-19T10:38:20.352Z,5880.00
2019-02-19T10:39:20.334Z,6044.00
2019-02-19T10:40:20.315Z,7032.00
2019-02-19T10:41:20.298Z,10668.00
2019-02-19T10:42:20.278Z,10288.00
2019-02-19T10:43:20.269Z,10044.00
2019-02-19T10:44:20.245Z,10348.00
2019-02-19T10:45:20.223Z,10416.00
2019-02-19T10:46:20.208Z,6716.00
2019-02-19T10:47:20.193Z,6880.00
2019-02-19T10:48:20.189Z,6648.00
2019-02-19T10:49:20.164Z,5480.00
2019-02-19T10:50:20.148Z,6284.00
2019-02-19T10:51:20.143Z,10372.00
2019-02-19T10:52:20.114Z,7796.00
2019-02-19T10:53:20.106Z,10664.00
2019-02-19T10:54:20.084Z,8188.00
2019-02-19T10:55:20.070Z,8708.00
2019-02-19T10:56:20.057Z,9136.00
2019-02-19T10:57:20.039Z,7100.00
2019-02-19T10:58:22.942Z,7316.00
2019-02-19T10:59:20.009Z,5904.00
2019-02-19T11:00:19.994Z,4700.00
2019-02-19T11:01:19.981Z,4056.00
2019-02-19T11:02:19.963Z,3348.00
2019-02-19T11:03:19.949Z,2620.00
2019-02-19T11:04:19.934Z,2376.00
2019-02-19T11:05:19.919Z,2620.00
2019-02-19T11:06:19.901Z,2800.00
2019-02-19T11:07:19.887Z,2996.00
2019-02-19T11:08:19.874Z,2772.00
2019-02-19T11:09:19.856Z,2792.00
2019-02-19T11:10:19.847Z,3340.00
2019-02-19T11:11:19.830Z,2868.00
2019-02-19T11:12:19.804Z,2876.00
2019-02-19T11:13:19.787Z,3116.00
2019-02-19T11:14:19.770Z,3392.00
2019-02-19T11:15:19.763Z,7200.00
2019-02-19T11:16:19.744Z,3908.00
2019-02-19T11:17:19.994Z,4120.00
2019-02-19T11:18:27.843Z,8376.00
2019-02-19T11:19:19.687Z,4644.00
2019-02-19T11:20:19.668Z,4980.00
2019-02-19T11:21:20.085Z,5924.00
2019-02-19T11:22:19.636Z,5892.00
2019-02-19T11:23:19.619Z,5480.00
2019-02-19T11:24:19.606Z,9112.00
2019-02-19T11:25:19.615Z,5328.00
2019-02-19T11:26:19.581Z,4712.00
2019-02-19T11:27:19.552Z,7856.00
2019-02-19T11:28:19.540Z,5628.00
2019-02-19T11:29:19.522Z,8444.00
2019-02-19T11:30:20.452Z,4872.00
2019-02-19T11:31:19.491Z,3756.00
2019-02-19T11:32:19.474Z,3468.00
2019-02-19T11:33:19.460Z,3292.00
2019-02-19T11:34:19.443Z,3420.00
2019-02-19T11:35:19.428Z,7152.00
2019-02-19T11:36:19.411Z,5140.00
2019-02-19T11:37:19.396Z,6188.00
2019-02-19T11:38:19.376Z,9280.00
2019-02-19T11:39:19.371Z,4648.00
2019-02-19T11:40:19.343Z,6716.00
2019-02-19T11:41:19.328Z,9360.00
2019-02-19T11:42:19.314Z,8164.00
2019-02-19T11:43:19.292Z,5728.00
2019-02-19T11:44:19.276Z,4928.00
2019-02-19T11:45:19.265Z,4820.00
2019-02-19T11:46:19.245Z,4420.00
2019-02-19T11:47:26.435Z,8648.00
2019-02-19T11:48:19.260Z,8024.00
2019-02-19T11:49:19.197Z,5552.00
2019-02-19T11:50:19.181Z,9808.00
2019-02-19T11:51:19.171Z,9636.00
2019-02-19T11:52:19.145Z,5024.00
2019-02-19T11:53:19.143Z,4476.00
2019-02-19T11:54:19.125Z,4248.00
2019-02-19T11:55:19.103Z,3520.00
2019-02-19T11:56:19.082Z,2880.00
2019-02-19T11:57:19.068Z,2480.00
2019-02-19T11:58:19.066Z,2248.00
2019-02-19T11:59:19.042Z,1988.00
2019-02-19T12:00:19.019Z,1700.00
2019-02-19T12:01:19.010Z,1484.00
2019-02-19T12:02:18.996Z,1392.00
2019-02-19T12:03:18.970Z,1396.00
2019-02-19T12:04:18.957Z,1560.00
2019-02-19T12:05:18.938Z,2100.00
2019-02-19T12:06:18.919Z,2380.00
2019-02-19T12:07:18.907Z,2552.00
2019-02-19T12:08:18.885Z,2560.00
2019-02-19T12:09:18.870Z,2300.00
2019-02-19T12:10:18.857Z,2360.00
2019-02-19T12:11:18.844Z,2424.00
2019-02-19T12:12:18.818Z,2724.00
2019-02-19T12:13:18.808Z,3016.00
2019-02-19T12:14:18.784Z,3088.00
2019-02-19T12:15:19.314Z,3572.00
2019-02-19T12:16:18.759Z,4072.00
2019-02-19T12:17:18.729Z,4124.00
2019-02-19T12:18:18.733Z,4116.00
2019-02-19T12:19:18.694Z,4224.00
2019-02-19T12:20:18.680Z,4216.00
2019-02-19T12:21:18.664Z,4416.00
2019-02-19T12:22:18.658Z,4380.00
2019-02-19T12:23:18.630Z,4668.00
2019-02-19T12:24:18.615Z,4976.00
2019-02-19T12:25:18.596Z,5636.00
2019-02-19T12:26:18.583Z,5660.00
2019-02-19T12:27:18.567Z,5540.00
2019-02-19T12:28:18.544Z,5688.00
2019-02-19T12:29:18.523Z,5092.00
2019-02-19T12:30:18.522Z,4928.00
2019-02-19T12:31:18.497Z,4680.00
2019-02-19T12:32:18.470Z,3824.00
2019-02-19T12:33:18.455Z,3328.00
2019-02-19T12:34:18.439Z,2840.00
2019-02-19T12:35:18.422Z,2320.00
2019-02-19T12:36:18.407Z,2056.00
2019-02-19T12:37:18.390Z,1900.00
2019-02-19T12:38:18.369Z,1592.00
2019-02-19T12:39:18.353Z,1504.00
2019-02-19T12:40:18.333Z,1460.00
2019-02-19T12:41:18.316Z,1500.00
2019-02-19T12:42:18.312Z,1600.00
2019-02-19T12:43:18.286Z,1532.00
2019-02-19T12:44:18.264Z,1664.00
2019-02-19T12:45:18.246Z,1748.00